sensor_id;sensor_type;location;lat;lon;timestamp;temperature;humidity
8152;DHT22;4117;53.622;9.958;2022-12-29T00:01:24;7.80;99.90
8152;DHT22;4117;53.622;9.958;2022-12-29T00:03:51;7.80;99.90
8152;DHT22;4117;53.622;9.958;2022-12-29T00:06:17;7.80;99.90
8152;DHT22;4117;53.622;9.958;2022-12-29T00:08:44;7.80;99.90
8152;DHT22;4117;53.622;9.958;2022-12-29T00:11:15;7.80;99.90
8152;DHT22;4117;53.622;9.958;2022-12-29T00:13:43;7.80;99.90
8152;DHT22;4117;53.622;9.958;2022-12-29T00:16:29;7.80;99.90
8152;DHT22;4117;53.622;9.958;2022-12-29T00:18:56;7.80;99.90
8152;DHT22;4117;53.622;9.958;2022-12-29T00:21:24;7.90;99.90
8152;DHT22;4117;53.622;9.958;2022-12-29T00:24:12;7.90;99.90
8152;DHT22;4117;53.622;9.958;2022-12-29T00:27:08;7.90;99.90
8152;DHT22;4117;53.622;9.958;2022-12-29T00:29:53;7.90;99.90
8152;DHT22;4117;53.622;9.958;2022-12-29T00:32:38;8.00;99.90
8152;DHT22;4117;53.622;9.958;2022-12-29T00:35:28;8.00;99.90
8152;DHT22;4117;53.622;9.958;2022-12-29T00:37:56;8.00;99.90
8152;DHT22;4117;53.622;9.958;2022-12-29T00:40:41;8.00;99.90
8152;DHT22;4117;53.622;9.958;2022-12-29T00:43:25;8.00;99.90
8152;DHT22;4117;53.622;9.958;2022-12-29T00:46:09;8.10;99.90
8152;DHT22;4117;53.622;9.958;2022-12-29T00:48:38;8.10;99.90
8152;DHT22;4117;53.622;9.958;2022-12-29T00:51:22;8.10;99.90
8152;DHT22;4117;53.622;9.958;2022-12-29T00:53:49;8.10;99.90
8152;DHT22;4117;53.622;9.958;2022-12-29T00:56:16;8.10;99.90
8152;DHT22;4117;53.622;9.958;2022-12-29T00:58:42;8.10;99.90
8152;DHT22;4117;53.622;9.958;2022-12-29T01:01:09;8.10;99.90
8152;DHT22;4117;53.622;9.958;2022-12-29T01:03:38;8.10;99.90
8152;DHT22;4117;53.622;9.958;2022-12-29T01:06:07;8.10;99.90
8152;DHT22;4117;53.622;9.958;2022-12-29T01:08:34;8.20;99.90
8152;DHT22;4117;53.622;9.958;2022-12-29T01:11:04;8.20;99.90
8152;DHT22;4117;53.622;9.958;2022-12-29T01:13:30;8.20;99.90
8152;DHT22;4117;53.622;9.958;2022-12-29T01:15:58;8.20;99.90
8152;DHT22;4117;53.622;9.958;2022-12-29T01:18:25;8.20;99.90
8152;DHT22;4117;53.622;9.958;2022-12-29T01:20:59;8.20;99.90
8152;DHT22;4117;53.622;9.958;2022-12-29T01:23:27;8.20;99.90
8152;DHT22;4117;53.622;9.958;2022-12-29T01:25:54;8.30;99.90
8152;DHT22;4117;53.622;9.958;2022-12-29T01:28:21;8.30;99.90
8152;DHT22;4117;53.622;9.958;2022-12-29T01:30:48;8.30;99.90
8152;DHT22;4117;53.622;9.958;2022-12-29T01:33:15;8.30;99.90
8152;DHT22;4117;53.622;9.958;2022-12-29T01:35:42;8.30;99.90
8152;DHT22;4117;53.622;9.958;2022-12-29T01:38:11;8.40;99.90
8152;DHT22;4117;53.622;9.958;2022-12-29T01:40:44;8.40;99.90
8152;DHT22;4117;53.622;9.958;2022-12-29T01:43:13;8.40;99.90
8152;DHT22;4117;53.622;9.958;2022-12-29T01:45:44;8.40;99.90
8152;DHT22;4117;53.622;9.958;2022-12-29T01:48:13;8.50;99.90
8152;DHT22;4117;53.622;9.958;2022-12-29T01:50:45;8.50;99.90
8152;DHT22;4117;53.622;9.958;2022-12-29T01:53:17;8.40;99.90
8152;DHT22;4117;53.622;9.958;2022-12-29T01:55:48;8.50;99.90
8152;DHT22;4117;53.622;9.958;2022-12-29T01:58:20;8.50;99.90
8152;DHT22;4117;53.622;9.958;2022-12-29T02:00:49;8.50;99.90
8152;DHT22;4117;53.622;9.958;2022-12-29T02:03:16;8.50;99.90
8152;DHT22;4117;53.622;9.958;2022-12-29T02:05:49;8.50;99.90
8152;DHT22;4117;53.622;9.958;2022-12-29T02:08:19;8.50;99.90
8152;DHT22;4117;53.622;9.958;2022-12-29T02:10:47;8.60;99.90
8152;DHT22;4117;53.622;9.958;2022-12-29T02:13:15;8.50;99.90
8152;DHT22;4117;53.622;9.958;2022-12-29T02:15:48;8.60;99.90
8152;DHT22;4117;53.622;9.958;2022-12-29T02:18:28;8.60;99.90
8152;DHT22;4117;53.622;9.958;2022-12-29T02:21:29;8.60;99.90
8152;DHT22;4117;53.622;9.958;2022-12-29T02:27:16;8.60;99.90
8152;DHT22;4117;53.622;9.958;2022-12-29T02:30:03;8.70;99.90
8152;DHT22;4117;53.622;9.958;2022-12-29T02:32:37;8.70;99.90
8152;DHT22;4117;53.622;9.958;2022-12-29T02:35:10;8.70;99.90
8152;DHT22;4117;53.622;9.958;2022-12-29T02:37:44;8.70;99.90
8152;DHT22;4117;53.622;9.958;2022-12-29T02:40:23;8.70;99.90
8152;DHT22;4117;53.622;9.958;2022-12-29T02:42:56;8.80;99.90
8152;DHT22;4117;53.622;9.958;2022-12-29T02:45:31;8.80;99.90
8152;DHT22;4117;53.622;9.958;2022-12-29T02:48:05;8.80;99.90
8152;DHT22;4117;53.622;9.958;2022-12-29T02:50:36;8.90;99.90
8152;DHT22;4117;53.622;9.958;2022-12-29T02:53:07;8.90;99.90
8152;DHT22;4117;53.622;9.958;2022-12-29T02:55:35;8.90;99.90
8152;DHT22;4117;53.622;9.958;2022-12-29T02:58:16;8.90;99.90
8152;DHT22;4117;53.622;9.958;2022-12-29T03:01:01;8.90;99.90
8152;DHT22;4117;53.622;9.958;2022-12-29T03:03:42;8.90;99.90
8152;DHT22;4117;53.622;9.958;2022-12-29T03:06:25;9.00;99.90
8152;DHT22;4117;53.622;9.958;2022-12-29T03:08:58;9.00;99.90
8152;DHT22;4117;53.622;9.958;2022-12-29T03:11:32;9.00;99.90
8152;DHT22;4117;53.622;9.958;2022-12-29T03:14:26;9.00;99.90
8152;DHT22;4117;53.622;9.958;2022-12-29T03:17:19;9.00;99.90
8152;DHT22;4117;53.622;9.958;2022-12-29T03:19:57;9.00;99.90
8152;DHT22;4117;53.622;9.958;2022-12-29T03:22:28;9.10;99.90
8152;DHT22;4117;53.622;9.958;2022-12-29T03:24:59;9.00;99.90
8152;DHT22;4117;53.622;9.958;2022-12-29T03:27:30;9.00;99.90
8152;DHT22;4117;53.622;9.958;2022-12-29T03:30:01;9.00;99.90
8152;DHT22;4117;53.622;9.958;2022-12-29T03:32:33;9.00;99.90
8152;DHT22;4117;53.622;9.958;2022-12-29T03:35:04;9.00;99.90
8152;DHT22;4117;53.622;9.958;2022-12-29T03:37:36;9.00;99.90
8152;DHT22;4117;53.622;9.958;2022-12-29T03:40:05;9.00;99.90
8152;DHT22;4117;53.622;9.958;2022-12-29T03:42:35;9.00;99.90
8152;DHT22;4117;53.622;9.958;2022-12-29T03:45:04;9.00;99.90
8152;DHT22;4117;53.622;9.958;2022-12-29T03:47:32;9.10;99.90
8152;DHT22;4117;53.622;9.958;2022-12-29T03:49:59;9.00;99.90
8152;DHT22;4117;53.622;9.958;2022-12-29T03:52:27;9.10;99.90
8152;DHT22;4117;53.622;9.958;2022-12-29T03:54:54;9.10;99.90
8152;DHT22;4117;53.622;9.958;2022-12-29T03:57:21;9.10;99.90
8152;DHT22;4117;53.622;9.958;2022-12-29T03:59:48;9.10;99.90
8152;DHT22;4117;53.622;9.958;2022-12-29T04:02:15;9.10;99.90
8152;DHT22;4117;53.622;9.958;2022-12-29T04:04:42;9.20;99.90
8152;DHT22;4117;53.622;9.958;2022-12-29T04:07:08;9.20;99.90
8152;DHT22;4117;53.622;9.958;2022-12-29T04:09:37;9.10;99.90
8152;DHT22;4117;53.622;9.958;2022-12-29T04:12:04;9.20;99.90
8152;DHT22;4117;53.622;9.958;2022-12-29T04:14:31;9.20;99.90
8152;DHT22;4117;53.622;9.958;2022-12-29T04:16:58;9.20;99.90
8152;DHT22;4117;53.622;9.958;2022-12-29T04:19:24;9.20;99.90
8152;DHT22;4117;53.622;9.958;2022-12-29T04:21:51;9.30;99.90
8152;DHT22;4117;53.622;9.958;2022-12-29T04:24:17;9.20;99.90
8152;DHT22;4117;53.622;9.958;2022-12-29T04:26:46;9.30;99.90
8152;DHT22;4117;53.622;9.958;2022-12-29T04:29:12;9.30;99.90
8152;DHT22;4117;53.622;9.958;2022-12-29T04:31:39;9.20;99.90
8152;DHT22;4117;53.622;9.958;2022-12-29T04:34:06;9.30;99.90
8152;DHT22;4117;53.622;9.958;2022-12-29T04:36:33;9.30;99.90
8152;DHT22;4117;53.622;9.958;2022-12-29T04:39:00;9.30;99.90
8152;DHT22;4117;53.622;9.958;2022-12-29T04:41:27;9.40;99.90
8152;DHT22;4117;53.622;9.958;2022-12-29T04:43:55;9.40;99.90
8152;DHT22;4117;53.622;9.958;2022-12-29T04:46:22;9.40;99.90
8152;DHT22;4117;53.622;9.958;2022-12-29T04:48:49;9.40;99.90
8152;DHT22;4117;53.622;9.958;2022-12-29T04:51:16;9.50;99.90
8152;DHT22;4117;53.622;9.958;2022-12-29T04:53:43;9.50;99.90
8152;DHT22;4117;53.622;9.958;2022-12-29T04:56:10;9.50;99.90
8152;DHT22;4117;53.622;9.958;2022-12-29T04:58:37;9.50;99.90
8152;DHT22;4117;53.622;9.958;2022-12-29T05:01:05;9.40;99.90
8152;DHT22;4117;53.622;9.958;2022-12-29T05:03:32;9.40;99.90
8152;DHT22;4117;53.622;9.958;2022-12-29T05:05:59;9.40;99.90
8152;DHT22;4117;53.622;9.958;2022-12-29T05:08:26;9.40;99.90
8152;DHT22;4117;53.622;9.958;2022-12-29T05:10:53;9.40;99.90
8152;DHT22;4117;53.622;9.958;2022-12-29T05:13:21;9.40;99.90
8152;DHT22;4117;53.622;9.958;2022-12-29T05:15:49;9.40;99.90
8152;DHT22;4117;53.622;9.958;2022-12-29T05:18:18;9.40;99.90
8152;DHT22;4117;53.622;9.958;2022-12-29T05:20:45;9.40;99.90
8152;DHT22;4117;53.622;9.958;2022-12-29T05:23:12;9.40;99.90
8152;DHT22;4117;53.622;9.958;2022-12-29T05:25:39;9.40;99.90
8152;DHT22;4117;53.622;9.958;2022-12-29T05:28:06;9.40;99.90
8152;DHT22;4117;53.622;9.958;2022-12-29T05:30:33;9.40;99.90
8152;DHT22;4117;53.622;9.958;2022-12-29T05:33:00;9.40;99.90
8152;DHT22;4117;53.622;9.958;2022-12-29T05:35:28;9.40;99.90
8152;DHT22;4117;53.622;9.958;2022-12-29T05:37:55;9.40;99.90
8152;DHT22;4117;53.622;9.958;2022-12-29T05:40:22;9.40;99.90
8152;DHT22;4117;53.622;9.958;2022-12-29T05:42:49;9.50;99.90
8152;DHT22;4117;53.622;9.958;2022-12-29T05:45:15;9.40;99.90
8152;DHT22;4117;53.622;9.958;2022-12-29T05:47:42;9.50;99.90
8152;DHT22;4117;53.622;9.958;2022-12-29T05:50:09;9.40;99.90
8152;DHT22;4117;53.622;9.958;2022-12-29T05:52:37;9.50;99.90
8152;DHT22;4117;53.622;9.958;2022-12-29T05:55:05;9.50;99.90
8152;DHT22;4117;53.622;9.958;2022-12-29T05:57:32;9.50;99.90
8152;DHT22;4117;53.622;9.958;2022-12-29T05:59:59;9.50;99.90
8152;DHT22;4117;53.622;9.958;2022-12-29T06:02:26;9.50;99.90
8152;DHT22;4117;53.622;9.958;2022-12-29T06:04:55;9.50;99.90
8152;DHT22;4117;53.622;9.958;2022-12-29T06:07:22;9.50;99.90
8152;DHT22;4117;53.622;9.958;2022-12-29T06:09:50;9.50;99.90
8152;DHT22;4117;53.622;9.958;2022-12-29T06:12:17;9.50;99.90
8152;DHT22;4117;53.622;9.958;2022-12-29T06:14:44;9.50;99.90
8152;DHT22;4117;53.622;9.958;2022-12-29T06:17:11;9.50;99.90
8152;DHT22;4117;53.622;9.958;2022-12-29T06:19:38;9.50;99.90
8152;DHT22;4117;53.622;9.958;2022-12-29T06:22:05;9.50;99.90
8152;DHT22;4117;53.622;9.958;2022-12-29T06:24:33;9.50;99.90
8152;DHT22;4117;53.622;9.958;2022-12-29T06:27:01;9.50;99.90
8152;DHT22;4117;53.622;9.958;2022-12-29T06:29:28;9.50;99.90
8152;DHT22;4117;53.622;9.958;2022-12-29T06:31:55;9.50;99.90
8152;DHT22;4117;53.622;9.958;2022-12-29T06:34:23;9.60;99.90
8152;DHT22;4117;53.622;9.958;2022-12-29T06:36:50;9.60;99.90
8152;DHT22;4117;53.622;9.958;2022-12-29T06:39:17;9.60;99.90
8152;DHT22;4117;53.622;9.958;2022-12-29T06:41:44;9.50;99.90
8152;DHT22;4117;53.622;9.958;2022-12-29T06:44:12;9.50;99.90
8152;DHT22;4117;53.622;9.958;2022-12-29T06:46:39;9.50;99.90
8152;DHT22;4117;53.622;9.958;2022-12-29T06:49:06;9.40;99.90
8152;DHT22;4117;53.622;9.958;2022-12-29T06:51:33;9.40;99.90
8152;DHT22;4117;53.622;9.958;2022-12-29T06:53:59;9.40;99.90
8152;DHT22;4117;53.622;9.958;2022-12-29T06:56:26;9.40;99.90
8152;DHT22;4117;53.622;9.958;2022-12-29T06:58:53;9.40;99.90
8152;DHT22;4117;53.622;9.958;2022-12-29T07:01:22;9.40;99.90
8152;DHT22;4117;53.622;9.958;2022-12-29T07:03:49;9.40;99.90
8152;DHT22;4117;53.622;9.958;2022-12-29T07:06:16;9.40;99.90
8152;DHT22;4117;53.622;9.958;2022-12-29T07:08:43;9.40;99.90
8152;DHT22;4117;53.622;9.958;2022-12-29T07:11:10;9.40;99.90
8152;DHT22;4117;53.622;9.958;2022-12-29T07:13:37;9.30;99.90
8152;DHT22;4117;53.622;9.958;2022-12-29T07:16:07;9.30;99.90
8152;DHT22;4117;53.622;9.958;2022-12-29T07:18:36;9.40;99.90
8152;DHT22;4117;53.622;9.958;2022-12-29T07:21:03;9.40;99.90
8152;DHT22;4117;53.622;9.958;2022-12-29T07:23:30;9.40;99.90
8152;DHT22;4117;53.622;9.958;2022-12-29T07:26:01;9.30;99.90
8152;DHT22;4117;53.622;9.958;2022-12-29T07:28:28;9.30;99.90
8152;DHT22;4117;53.622;9.958;2022-12-29T07:30:55;9.30;99.90
8152;DHT22;4117;53.622;9.958;2022-12-29T07:33:22;9.30;99.90
8152;DHT22;4117;53.622;9.958;2022-12-29T07:35:51;9.30;99.90
8152;DHT22;4117;53.622;9.958;2022-12-29T07:38:18;9.30;99.90
8152;DHT22;4117;53.622;9.958;2022-12-29T07:40:44;9.30;99.90
8152;DHT22;4117;53.622;9.958;2022-12-29T07:43:11;9.30;99.90
8152;DHT22;4117;53.622;9.958;2022-12-29T07:45:38;9.30;99.90
8152;DHT22;4117;53.622;9.958;2022-12-29T07:48:06;9.30;99.90
8152;DHT22;4117;53.622;9.958;2022-12-29T07:50:34;9.30;99.90
8152;DHT22;4117;53.622;9.958;2022-12-29T07:53:02;9.40;99.90
8152;DHT22;4117;53.622;9.958;2022-12-29T07:55:30;9.40;99.90
8152;DHT22;4117;53.622;9.958;2022-12-29T07:57:56;9.40;99.90
8152;DHT22;4117;53.622;9.958;2022-12-29T08:00:23;9.40;99.90
8152;DHT22;4117;53.622;9.958;2022-12-29T08:02:50;9.40;99.90
8152;DHT22;4117;53.622;9.958;2022-12-29T08:05:17;9.40;99.90
8152;DHT22;4117;53.622;9.958;2022-12-29T08:07:44;9.30;99.90
8152;DHT22;4117;53.622;9.958;2022-12-29T08:10:14;9.30;99.90
8152;DHT22;4117;53.622;9.958;2022-12-29T08:12:41;9.40;99.90
8152;DHT22;4117;53.622;9.958;2022-12-29T08:15:10;9.40;99.90
8152;DHT22;4117;53.622;9.958;2022-12-29T08:17:37;9.30;99.90
8152;DHT22;4117;53.622;9.958;2022-12-29T08:20:05;9.30;99.90
8152;DHT22;4117;53.622;9.958;2022-12-29T08:22:32;9.30;99.90
8152;DHT22;4117;53.622;9.958;2022-12-29T08:24:59;9.30;99.90
8152;DHT22;4117;53.622;9.958;2022-12-29T08:27:27;9.20;99.90
8152;DHT22;4117;53.622;9.958;2022-12-29T08:29:54;9.20;99.90
8152;DHT22;4117;53.622;9.958;2022-12-29T08:32:21;9.20;99.90
8152;DHT22;4117;53.622;9.958;2022-12-29T08:34:48;9.20;99.90
8152;DHT22;4117;53.622;9.958;2022-12-29T08:37:16;9.30;99.90
8152;DHT22;4117;53.622;9.958;2022-12-29T08:39:42;9.30;99.90
8152;DHT22;4117;53.622;9.958;2022-12-29T08:42:09;9.30;99.90
8152;DHT22;4117;53.622;9.958;2022-12-29T08:44:38;9.30;99.90
8152;DHT22;4117;53.622;9.958;2022-12-29T08:47:05;9.30;99.90
8152;DHT22;4117;53.622;9.958;2022-12-29T08:49:33;9.30;99.90
8152;DHT22;4117;53.622;9.958;2022-12-29T08:52:00;9.30;99.90
8152;DHT22;4117;53.622;9.958;2022-12-29T08:54:27;9.30;99.90
8152;DHT22;4117;53.622;9.958;2022-12-29T08:56:54;9.40;99.90
8152;DHT22;4117;53.622;9.958;2022-12-29T08:59:21;9.40;99.90
8152;DHT22;4117;53.622;9.958;2022-12-29T09:01:49;9.40;99.90
8152;DHT22;4117;53.622;9.958;2022-12-29T09:04:16;9.40;99.90
8152;DHT22;4117;53.622;9.958;2022-12-29T09:06:43;9.50;99.90
8152;DHT22;4117;53.622;9.958;2022-12-29T09:09:10;9.50;99.90
8152;DHT22;4117;53.622;9.958;2022-12-29T09:11:37;9.50;99.90
8152;DHT22;4117;53.622;9.958;2022-12-29T09:14:06;9.60;99.90
8152;DHT22;4117;53.622;9.958;2022-12-29T09:16:34;9.60;99.90
8152;DHT22;4117;53.622;9.958;2022-12-29T09:19:02;9.60;99.90
8152;DHT22;4117;53.622;9.958;2022-12-29T09:21:29;9.60;99.90
8152;DHT22;4117;53.622;9.958;2022-12-29T09:23:56;9.60;99.90
8152;DHT22;4117;53.622;9.958;2022-12-29T09:26:23;9.60;99.90
8152;DHT22;4117;53.622;9.958;2022-12-29T09:28:50;9.60;99.90
8152;DHT22;4117;53.622;9.958;2022-12-29T09:31:17;9.60;99.90
8152;DHT22;4117;53.622;9.958;2022-12-29T09:33:44;9.60;99.80
8152;DHT22;4117;53.622;9.958;2022-12-29T09:36:12;9.60;99.90
8152;DHT22;4117;53.622;9.958;2022-12-29T09:38:39;9.60;99.90
8152;DHT22;4117;53.622;9.958;2022-12-29T09:41:13;9.60;97.40
8152;DHT22;4117;53.622;9.958;2022-12-29T09:43:59;9.60;95.10
8152;DHT22;4117;53.622;9.958;2022-12-29T09:46:34;9.60;92.90
8152;DHT22;4117;53.622;9.958;2022-12-29T09:49:16;9.70;89.10
8152;DHT22;4117;53.622;9.958;2022-12-29T09:51:48;9.60;90.50
8152;DHT22;4117;53.622;9.958;2022-12-29T09:54:39;9.70;80.40
8152;DHT22;4117;53.622;9.958;2022-12-29T09:57:15;9.60;80.10
8152;DHT22;4117;53.622;9.958;2022-12-29T09:59:44;9.60;79.00
8152;DHT22;4117;53.622;9.958;2022-12-29T10:02:26;9.70;76.40
8152;DHT22;4117;53.622;9.958;2022-12-29T10:04:55;9.60;71.10
8152;DHT22;4117;53.622;9.958;2022-12-29T10:07:31;9.70;69.10
8152;DHT22;4117;53.622;9.958;2022-12-29T10:10:07;9.70;65.20
8152;DHT22;4117;53.622;9.958;2022-12-29T10:12:58;9.70;63.00
8152;DHT22;4117;53.622;9.958;2022-12-29T10:15:36;9.70;63.00
8152;DHT22;4117;53.622;9.958;2022-12-29T10:18:18;9.60;54.20
8152;DHT22;4117;53.622;9.958;2022-12-29T10:20:51;9.60;50.70
8152;DHT22;4117;53.622;9.958;2022-12-29T10:23:27;9.60;49.70
8152;DHT22;4117;53.622;9.958;2022-12-29T10:25:55;9.60;49.30
8152;DHT22;4117;53.622;9.958;2022-12-29T10:28:24;9.50;48.40
8152;DHT22;4117;53.622;9.958;2022-12-29T10:30:58;9.60;44.20
8152;DHT22;4117;53.622;9.958;2022-12-29T10:33:31;9.50;45.10
8152;DHT22;4117;53.622;9.958;2022-12-29T10:36:04;9.50;40.90
8152;DHT22;4117;53.622;9.958;2022-12-29T10:38:42;9.50;40.60
8152;DHT22;4117;53.622;9.958;2022-12-29T10:41:17;9.50;39.60
8152;DHT22;4117;53.622;9.958;2022-12-29T10:43:46;9.40;38.40
8152;DHT22;4117;53.622;9.958;2022-12-29T10:46:17;9.40;39.40
8152;DHT22;4117;53.622;9.958;2022-12-29T10:48:45;9.40;38.30
8152;DHT22;4117;53.622;9.958;2022-12-29T10:51:20;9.40;34.00
8152;DHT22;4117;53.622;9.958;2022-12-29T10:53:52;9.50;33.60
8152;DHT22;4117;53.622;9.958;2022-12-29T10:56:29;9.50;32.50
8152;DHT22;4117;53.622;9.958;2022-12-29T10:59:01;9.50;31.60
8152;DHT22;4117;53.622;9.958;2022-12-29T11:01:36;9.50;27.70
8152;DHT22;4117;53.622;9.958;2022-12-29T11:04:12;9.60;24.10
8152;DHT22;4117;53.622;9.958;2022-12-29T11:06:44;9.50;24.10
8152;DHT22;4117;53.622;9.958;2022-12-29T11:09:15;9.50;21.90
8152;DHT22;4117;53.622;9.958;2022-12-29T11:11:42;9.50;22.20
8152;DHT22;4117;53.622;9.958;2022-12-29T11:14:13;9.40;23.50
8152;DHT22;4117;53.622;9.958;2022-12-29T11:16:41;9.50;21.20
8152;DHT22;4117;53.622;9.958;2022-12-29T11:19:20;9.50;21.10
8152;DHT22;4117;53.622;9.958;2022-12-29T11:21:48;9.60;20.30
8152;DHT22;4117;53.622;9.958;2022-12-29T11:24:21;9.60;20.80
8152;DHT22;4117;53.622;9.958;2022-12-29T11:26:50;9.60;20.80
8152;DHT22;4117;53.622;9.958;2022-12-29T11:29:23;9.70;17.10
8152;DHT22;4117;53.622;9.958;2022-12-29T11:31:52;9.70;16.40
8152;DHT22;4117;53.622;9.958;2022-12-29T11:34:22;9.60;17.90
8152;DHT22;4117;53.622;9.958;2022-12-29T11:36:52;9.60;16.70
8152;DHT22;4117;53.622;9.958;2022-12-29T11:39:31;9.60;16.50
8152;DHT22;4117;53.622;9.958;2022-12-29T11:41:59;9.60;16.40
8152;DHT22;4117;53.622;9.958;2022-12-29T11:44:31;9.70;16.50
8152;DHT22;4117;53.622;9.958;2022-12-29T11:47:01;9.60;14.30
8152;DHT22;4117;53.622;9.958;2022-12-29T11:49:28;9.60;16.00
8152;DHT22;4117;53.622;9.958;2022-12-29T11:51:55;9.60;13.10
8152;DHT22;4117;53.622;9.958;2022-12-29T11:54:25;9.60;12.10
8152;DHT22;4117;53.622;9.958;2022-12-29T11:56:55;9.70;10.50
8152;DHT22;4117;53.622;9.958;2022-12-29T11:59:37;9.60;10.00
8152;DHT22;4117;53.622;9.958;2022-12-29T12:05:21;9.60;13.70
8152;DHT22;4117;53.622;9.958;2022-12-29T12:07:52;9.70;8.10
8152;DHT22;4117;53.622;9.958;2022-12-29T12:10:24;9.60;11.10
8152;DHT22;4117;53.622;9.958;2022-12-29T12:13:01;9.60;11.60
8152;DHT22;4117;53.622;9.958;2022-12-29T12:15:34;9.60;11.50
8152;DHT22;4117;53.622;9.958;2022-12-29T12:18:09;9.60;11.20
8152;DHT22;4117;53.622;9.958;2022-12-29T12:20:42;9.60;10.30
8152;DHT22;4117;53.622;9.958;2022-12-29T12:23:24;9.50;11.10
8152;DHT22;4117;53.622;9.958;2022-12-29T12:25:59;9.50;11.50
8152;DHT22;4117;53.622;9.958;2022-12-29T12:28:34;9.60;13.00
8152;DHT22;4117;53.622;9.958;2022-12-29T12:31:06;9.50;12.20
8152;DHT22;4117;53.622;9.958;2022-12-29T12:33:37;9.50;13.30
8152;DHT22;4117;53.622;9.958;2022-12-29T12:36:22;9.50;11.60
8152;DHT22;4117;53.622;9.958;2022-12-29T12:38:57;9.50;11.70
8152;DHT22;4117;53.622;9.958;2022-12-29T12:41:37;9.50;12.70
8152;DHT22;4117;53.622;9.958;2022-12-29T12:44:15;9.50;13.90
8152;DHT22;4117;53.622;9.958;2022-12-29T12:47:10;9.50;14.60
8152;DHT22;4117;53.622;9.958;2022-12-29T12:50:08;9.50;16.10
8152;DHT22;4117;53.622;9.958;2022-12-29T12:52:46;9.50;15.30
8152;DHT22;4117;53.622;9.958;2022-12-29T12:55:34;9.50;16.40
8152;DHT22;4117;53.622;9.958;2022-12-29T12:58:10;9.60;14.20
8152;DHT22;4117;53.622;9.958;2022-12-29T13:00:50;9.50;15.30
8152;DHT22;4117;53.622;9.958;2022-12-29T13:03:26;9.50;15.60
8152;DHT22;4117;53.622;9.958;2022-12-29T13:06:11;9.60;13.00
8152;DHT22;4117;53.622;9.958;2022-12-29T13:08:53;9.60;12.60
8152;DHT22;4117;53.622;9.958;2022-12-29T13:11:31;9.60;13.50
8152;DHT22;4117;53.622;9.958;2022-12-29T13:14:13;9.60;12.60
8152;DHT22;4117;53.622;9.958;2022-12-29T13:16:50;9.60;13.20
8152;DHT22;4117;53.622;9.958;2022-12-29T13:19:25;9.60;10.90
8152;DHT22;4117;53.622;9.958;2022-12-29T13:22:01;9.60;12.40
8152;DHT22;4117;53.622;9.958;2022-12-29T13:24:36;9.60;13.60
8152;DHT22;4117;53.622;9.958;2022-12-29T13:27:16;9.50;13.70
8152;DHT22;4117;53.622;9.958;2022-12-29T13:29:50;9.50;14.50
8152;DHT22;4117;53.622;9.958;2022-12-29T13:32:31;9.40;16.30
8152;DHT22;4117;53.622;9.958;2022-12-29T13:35:11;9.30;20.80
8152;DHT22;4117;53.622;9.958;2022-12-29T13:37:47;9.20;24.00
8152;DHT22;4117;53.622;9.958;2022-12-29T13:40:16;9.20;26.50
8152;DHT22;4117;53.622;9.958;2022-12-29T13:42:45;9.10;30.30
8152;DHT22;4117;53.622;9.958;2022-12-29T13:45:17;9.00;30.20
8152;DHT22;4117;53.622;9.958;2022-12-29T13:47:52;9.10;35.50
8152;DHT22;4117;53.622;9.958;2022-12-29T13:50:23;9.00;37.90
8152;DHT22;4117;53.622;9.958;2022-12-29T13:52:58;9.00;38.40
8152;DHT22;4117;53.622;9.958;2022-12-29T13:55:32;9.00;44.20
8152;DHT22;4117;53.622;9.958;2022-12-29T13:58:07;8.90;43.90
8152;DHT22;4117;53.622;9.958;2022-12-29T14:00:43;8.90;50.10
8152;DHT22;4117;53.622;9.958;2022-12-29T14:03:27;8.70;50.00
8152;DHT22;4117;53.622;9.958;2022-12-29T14:06:13;8.50;44.10
8152;DHT22;4117;53.622;9.958;2022-12-29T14:08:42;8.20;37.90
8152;DHT22;4117;53.622;9.958;2022-12-29T14:11:10;8.10;42.80
8152;DHT22;4117;53.622;9.958;2022-12-29T14:13:40;7.90;43.50
8152;DHT22;4117;53.622;9.958;2022-12-29T14:16:12;7.90;44.50
8152;DHT22;4117;53.622;9.958;2022-12-29T14:18:49;7.90;47.10
8152;DHT22;4117;53.622;9.958;2022-12-29T14:21:19;7.80;47.30
8152;DHT22;4117;53.622;9.958;2022-12-29T14:23:49;7.80;51.60
8152;DHT22;4117;53.622;9.958;2022-12-29T14:26:34;7.80;50.00
8152;DHT22;4117;53.622;9.958;2022-12-29T14:29:22;7.80;49.30
8152;DHT22;4117;53.622;9.958;2022-12-29T14:35:38;7.80;52.20
8152;DHT22;4117;53.622;9.958;2022-12-29T14:38:07;7.80;52.90
8152;DHT22;4117;53.622;9.958;2022-12-29T14:40:34;7.80;56.50
8152;DHT22;4117;53.622;9.958;2022-12-29T14:43:01;7.80;54.20
8152;DHT22;4117;53.622;9.958;2022-12-29T14:45:29;7.80;54.90
8152;DHT22;4117;53.622;9.958;2022-12-29T14:47:58;7.80;55.90
8152;DHT22;4117;53.622;9.958;2022-12-29T14:50:37;7.80;56.80
8152;DHT22;4117;53.622;9.958;2022-12-29T14:53:39;7.70;56.20
8152;DHT22;4117;53.622;9.958;2022-12-29T14:55:57;7.70;57.80
8152;DHT22;4117;53.622;9.958;2022-12-29T14:58:27;7.70;58.60
8152;DHT22;4117;53.622;9.958;2022-12-29T15:00:55;7.70;59.80
8152;DHT22;4117;53.622;9.958;2022-12-29T15:03:24;7.70;61.20
8152;DHT22;4117;53.622;9.958;2022-12-29T15:05:56;7.70;61.10
8152;DHT22;4117;53.622;9.958;2022-12-29T15:08:29;7.70;61.10
8152;DHT22;4117;53.622;9.958;2022-12-29T15:11:00;7.70;61.10
8152;DHT22;4117;53.622;9.958;2022-12-29T15:13:34;7.70;61.10
8152;DHT22;4117;53.622;9.958;2022-12-29T15:16:01;7.60;61.10
8152;DHT22;4117;53.622;9.958;2022-12-29T15:18:30;7.60;61.00
8152;DHT22;4117;53.622;9.958;2022-12-29T15:20:59;7.60;62.60
8152;DHT22;4117;53.622;9.958;2022-12-29T15:23:30;7.70;64.60
8152;DHT22;4117;53.622;9.958;2022-12-29T15:25:59;7.60;69.60
8152;DHT22;4117;53.622;9.958;2022-12-29T15:28:27;7.70;69.10
8152;DHT22;4117;53.622;9.958;2022-12-29T15:30:57;7.70;70.80
8152;DHT22;4117;53.622;9.958;2022-12-29T15:33:28;7.70;75.20
8152;DHT22;4117;53.622;9.958;2022-12-29T15:35:56;7.70;75.10
8152;DHT22;4117;53.622;9.958;2022-12-29T15:38:30;7.70;74.60
8152;DHT22;4117;53.622;9.958;2022-12-29T15:41:02;7.70;81.80
8152;DHT22;4117;53.622;9.958;2022-12-29T15:43:43;7.70;82.20
8152;DHT22;4117;53.622;9.958;2022-12-29T15:46:17;7.70;81.00
8152;DHT22;4117;53.622;9.958;2022-12-29T15:48:44;7.70;80.20
8152;DHT22;4117;53.622;9.958;2022-12-29T15:51:18;7.60;80.80
8152;DHT22;4117;53.622;9.958;2022-12-29T15:53:48;7.70;81.10
8152;DHT22;4117;53.622;9.958;2022-12-29T15:56:17;7.70;85.60
8152;DHT22;4117;53.622;9.958;2022-12-29T15:58:46;7.70;83.60
8152;DHT22;4117;53.622;9.958;2022-12-29T16:01:19;7.60;84.60
8152;DHT22;4117;53.622;9.958;2022-12-29T16:03:50;7.70;81.30
8152;DHT22;4117;53.622;9.958;2022-12-29T16:06:30;7.60;81.40
8152;DHT22;4117;53.622;9.958;2022-12-29T16:09:00;7.60;81.80
8152;DHT22;4117;53.622;9.958;2022-12-29T16:11:32;7.60;78.80
8152;DHT22;4117;53.622;9.958;2022-12-29T16:14:01;7.60;86.50
8152;DHT22;4117;53.622;9.958;2022-12-29T16:16:31;7.50;80.40
8152;DHT22;4117;53.622;9.958;2022-12-29T16:19:05;7.50;78.90
8152;DHT22;4117;53.622;9.958;2022-12-29T16:21:36;7.50;75.10
8152;DHT22;4117;53.622;9.958;2022-12-29T16:24:08;7.50;80.50
8152;DHT22;4117;53.622;9.958;2022-12-29T16:26:36;7.40;79.20
8152;DHT22;4117;53.622;9.958;2022-12-29T16:29:06;7.40;79.70
8152;DHT22;4117;53.622;9.958;2022-12-29T16:31:35;7.40;78.00
8152;DHT22;4117;53.622;9.958;2022-12-29T16:34:13;7.30;78.60
8152;DHT22;4117;53.622;9.958;2022-12-29T16:36:54;7.30;78.40
8152;DHT22;4117;53.622;9.958;2022-12-29T16:39:31;7.30;74.50
8152;DHT22;4117;53.622;9.958;2022-12-29T16:41:59;7.30;79.80
8152;DHT22;4117;53.622;9.958;2022-12-29T16:44:28;7.30;83.40
8152;DHT22;4117;53.622;9.958;2022-12-29T16:47:18;7.20;79.50
8152;DHT22;4117;53.622;9.958;2022-12-29T16:49:50;7.30;78.60
8152;DHT22;4117;53.622;9.958;2022-12-29T16:52:21;7.20;80.50
8152;DHT22;4117;53.622;9.958;2022-12-29T16:54:53;7.20;81.10